Vanquish — PHOW — position and weather

sailwx.info

Track history (hours):
 
Tides and Currents Weather Stations Pressure Air Temp Water Temp Dewpoint Dewpoint Depression Visibility Wind Speed Wind Dir Waves Ship Positions

Vanquish

Last reported at 2017-Dec-08 09:37 UTC. Time now 2017-Dec-14 06:23 UTC.
Position N 25°14' W 080°06'.

Length 100 m; draft 3.7 m.

Type: Cargo ship. MMSI: 244561000.

Date/timePositionNaut miles runAvg speedWind from/ knotsBaromVisibWave heightAir tempDewpointWater temp
2017-Dec-08 09:37N 25°14' W 080°06'311.6
2017-Dec-08 09:22N 25°17' W 080°05'411.4
2017-Dec-08 08:59N 25°21' W 080°03'611.6
2017-Dec-08 08:30N 25°26' W 080°02'612.0
2017-Dec-08 08:00N 25°32' W 080°02'612.8
2017-Dec-08 07:30N 25°39' W 080°02'612.9
2017-Dec-08 07:00N 25°45' W 080°02'713.8
2017-Dec-08 06:31N 25°52' W 080°03'713.9
2017-Dec-08 06:00N 25°59' W 080°04'612.9
2017-Dec-08 05:30N 26°05' W 080°05'2 3.1
2017-Dec-08 04:53N 26°05' W 080°07'0 0.0
2017-Dec-08 04:26N 26°05' W 080°07'0 0.0
2017-Dec-08 03:56N 26°05' W 080°07'0 0.0
2017-Dec-08 03:26N 26°05' W 080°07'0 0.0
2017-Dec-08 02:59N 26°05' W 080°07'0 0.0
2017-Dec-08 02:29N 26°05' W 080°07'0 0.0
2017-Dec-08 01:59N 26°05' W 080°07'0 0.0
2017-Dec-08 01:29N 26°05' W 080°07'0 0.0
2017-Dec-08 00:59N 26°05' W 080°07'0 0.0
2017-Dec-08 00:29N 26°05' W 080°07'0 0.0
2017-Dec-07 23:59N 26°05' W 080°07'0 0.0
2017-Dec-07 23:30N 26°05' W 080°07'2 4.1
2017-Dec-07 23:01N 26°06' W 080°05'2 4.6
2017-Dec-07 22:30N 26°07' W 080°03'0 0.2
2017-Dec-07 22:00N 26°07' W 080°03'611.2
2017-Dec-07 21:30N 26°11' W 079°58'1 2.2
2017-Dec-07 21:00N 26°10' W 079°57'1 2.6
2017-Dec-07 20:30N 26°09' W 079°57'1 2.8
2017-Dec-07 20:00N 26°08' W 079°57'1 2.7
2017-Dec-07 19:30N 26°07' W 079°58'2 3.2
2017-Dec-07 19:00N 26°05' W 079°58'3 5.7
2017-Dec-07 18:30N 26°02' W 079°58'3 5.6
2017-Dec-07 18:00N 25°60' W 079°59'3 5.7
2017-Dec-07 17:30N 25°57' W 079°60'3 6.8
2017-Dec-07 17:00N 25°54' W 080°00'3 7.0
2017-Dec-07 16:30N 25°51' W 080°03'3 6.7
2017-Dec-07 16:00N 25°48' W 080°04'4 7.6
2017-Dec-07 15:30N 25°46' W 080°08'2 4.2
2017-Dec-07 15:00N 25°46' W 080°10'0 0.0
2017-Dec-07 14:30N 25°46' W 080°10'0 0.0
2017-Dec-07 14:00N 25°46' W 080°10'0 0.0
2017-Dec-07 13:30N 25°46' W 080°10'0 0.0
2017-Dec-07 13:00N 25°46' W 080°10'0 0.0
2017-Dec-07 12:30N 25°46' W 080°10'0 0.0
2017-Dec-07 12:00N 25°46' W 080°10'0 0.0
2017-Dec-07 11:30N 25°46' W 080°10'0 0.0
2017-Dec-07 10:54N 25°46' W 080°10'0 0.0
2017-Dec-07 10:30N 25°46' W 080°10'0 0.0
2017-Dec-07 10:00N 25°46' W 080°10'0 0.0
2017-Dec-07 09:30N 25°46' W 080°10'0 0.0
2017-Dec-07 08:57N 25°46' W 080°10'0 0.0
2017-Dec-07 08:30N 25°46' W 080°10'0 0.0
2017-Dec-07 08:00N 25°46' W 080°10'0 0.0
2017-Dec-07 07:30N 25°46' W 080°10'0 0.0
2017-Dec-07 07:00N 25°46' W 080°10'0 0.0
2017-Dec-07 06:30N 25°46' W 080°10'0 0.0
2017-Dec-07 05:57N 25°46' W 080°10'0 0.0
2017-Dec-07 05:30N 25°46' W 080°10'0 0.0
2017-Dec-07 05:00N 25°46' W 080°10'0 0.0
2017-Dec-07 04:30N 25°46' W 080°10'0 0.0
2017-Dec-07 04:00N 25°46' W 080°10'0 0.0
2017-Dec-07 03:30N 25°46' W 080°10'0 0.0
2017-Dec-07 03:00N 25°46' W 080°10'0 0.0
2017-Dec-07 02:30N 25°46' W 080°10'0 0.0
2017-Dec-07 02:00N 25°46' W 080°10'0 0.0
2017-Dec-07 01:30N 25°46' W 080°10'0 0.0
2017-Dec-07 01:00N 25°46' W 080°10'0 0.0
2017-Dec-07 00:30N 25°46' W 080°10'0 0.0
2017-Dec-07 00:00N 25°46' W 080°10'1 2.0
2017-Dec-06 23:30N 25°46' W 080°09'4 8.6
2017-Dec-06 23:00N 25°45' W 080°04'4 8.5
2017-Dec-06 22:30N 25°41' W 080°02'612.0
2017-Dec-06 22:00N 25°35' W 080°02'714.7
2017-Dec-06 21:30N 25°28' W 080°02'  
2017-Dec-01 06:31N 25°16' W 080°06'112.2
2017-Dec-01 06:27N 25°16' W 080°05'512.2
2017-Dec-01 06:00N 25°21' W 080°03'611.9
2017-Dec-01 05:30N 25°27' W 080°03'612.4
2017-Dec-01 05:00N 25°33' W 080°02'612.4
2017-Dec-01 04:30N 25°40' W 080°03'613.0
2017-Dec-01 04:00N 25°46' W 080°03'713.6
2017-Dec-01 03:30N 25°53' W 080°03'713.8
2017-Dec-01 03:00N 25°60' W 080°04'611.7
2017-Dec-01 02:30N 26°05' W 080°05'2 3.7
2017-Dec-01 02:00N 26°05' W 080°07'0 0.0
2017-Dec-01 01:30N 26°05' W 080°07'0 0.0
2017-Dec-01 00:55N 26°05' W 080°07'0 0.0
2017-Dec-01 00:25N 26°05' W 080°07'0 0.0
2017-Nov-30 23:55N 26°05' W 080°07'0 0.0
2017-Nov-30 23:25N 26°05' W 080°07'0 0.0
2017-Nov-30 22:58N 26°05' W 080°07'0 0.0
2017-Nov-30 22:28N 26°05' W 080°07'0 0.0
2017-Nov-30 21:58N 26°05' W 080°07'0 0.0
2017-Nov-30 21:28N 26°05' W 080°07'0 0.0
2017-Nov-30 20:58N 26°05' W 080°07'0 0.0
2017-Nov-30 20:28N 26°05' W 080°07'0 0.0
2017-Nov-30 19:58N 26°05' W 080°07'0 0.0
2017-Nov-30 19:28N 26°05' W 080°07'0 0.0
2017-Nov-30 18:58N 26°05' W 080°07'0 0.0
2017-Nov-30 18:28N 26°05' W 080°07'0 0.0
2017-Nov-30 17:58N 26°05' W 080°07'0 0.0
2017-Nov-30 17:28N 26°05' W 080°07'0 0.0
2017-Nov-30 16:58N 26°05' W 080°07'0 0.0
2017-Nov-30 16:19N 26°05' W 080°07'0 0.0
2017-Nov-30 15:49N 26°05' W 080°07'0 0.0
2017-Nov-30 15:26N 26°05' W 080°07'0 0.0
2017-Nov-30 14:49N 26°05' W 080°07'0 0.0
2017-Nov-30 14:30N 26°05' W 080°07'2 5.0
2017-Nov-30 14:00N 26°06' W 080°04'1 2.5
2017-Nov-30 13:30N 26°07' W 080°05'0 0.2
2017-Nov-30 13:00N 26°07' W 080°05'0 0.0
2017-Nov-30 12:30N 26°07' W 080°05'0 0.0
2017-Nov-30 12:00N 26°07' W 080°05'0 0.0
2017-Nov-30 11:27N 26°07' W 080°05'0 0.0
2017-Nov-30 10:51N 26°07' W 080°05'0 0.0
2017-Nov-30 10:24N 26°07' W 080°05'0 0.0
2017-Nov-30 09:54N 26°07' W 080°05'0 0.0
2017-Nov-30 09:27N 26°07' W 080°05'0 0.0
2017-Nov-30 08:57N 26°07' W 080°05'0 0.0
2017-Nov-30 08:24N 26°07' W 080°05'0 0.0
2017-Nov-30 07:54N 26°07' W 080°05'0 0.0
2017-Nov-30 07:27N 26°07' W 080°05'0 0.0
2017-Nov-30 06:54N 26°07' W 080°05'0 0.0
2017-Nov-30 06:27N 26°07' W 080°05'0 0.0
2017-Nov-30 05:57N 26°07' W 080°05'0 0.0
2017-Nov-30 05:30N 26°07' W 080°05'0 0.0
2017-Nov-30 04:57N 26°07' W 080°05'0 0.0
2017-Nov-30 04:27N 26°07' W 080°05'0 0.0
2017-Nov-30 03:57N 26°07' W 080°05'0 0.0
2017-Nov-30 03:30N 26°07' W 080°05'0 0.0
2017-Nov-30 03:00N 26°07' W 080°05'0 0.0
2017-Nov-30 02:30N 26°07' W 080°05'0 0.1
2017-Nov-30 02:00N 26°07' W 080°05'0 0.0
2017-Nov-30 01:30N 26°07' W 080°05'0 0.0
2017-Nov-30 01:00N 26°07' W 080°05'0 0.0
2017-Nov-30 00:30N 26°07' W 080°05'0 0.0
2017-Nov-30 00:00N 26°07' W 080°05'0 0.0
2017-Nov-29 23:30N 26°07' W 080°05'0 0.0
2017-Nov-29 23:00N 26°07' W 080°05'0 0.0
2017-Nov-29 22:30N 26°07' W 080°05'0 0.0
2017-Nov-29 21:54N 26°07' W 080°05'0 0.0
2017-Nov-29 21:21N 26°07' W 080°05'0 0.0
2017-Nov-29 21:00N 26°07' W 080°05'0 0.0
2017-Nov-29 20:21N 26°07' W 080°05'0 0.0
2017-Nov-29 19:51N 26°07' W 080°05'0 0.0
2017-Nov-29 19:27N 26°07' W 080°05'0 0.0
2017-Nov-29 18:54N 26°07' W 080°05'0 0.0
2017-Nov-29 18:24N 26°07' W 080°05'0 0.0
2017-Nov-29 17:54N 26°07' W 080°05'0 0.0
2017-Nov-29 17:24N 26°07' W 080°05'0 0.0
2017-Nov-29 16:57N 26°07' W 080°05'0 0.0
2017-Nov-29 16:27N 26°07' W 080°05'0 0.0
2017-Nov-29 15:57N 26°07' W 080°05'0 0.1
2017-Nov-29 15:27N 26°07' W 080°05'0 0.0
2017-Nov-29 14:54N 26°07' W 080°05'0 0.0
2017-Nov-29 14:27N 26°07' W 080°05'0 0.0
2017-Nov-29 14:00N 26°07' W 080°05'0 0.0
2017-Nov-29 13:30N 26°07' W 080°05'0 0.0
2017-Nov-29 13:00N 26°07' W 080°05'0 0.0
2017-Nov-29 12:30N 26°07' W 080°05'0 0.0
2017-Nov-29 12:00N 26°07' W 080°05'0 0.1
2017-Nov-29 11:30N 26°07' W 080°05'0 0.1
2017-Nov-29 11:00N 26°07' W 080°05'0 0.1
2017-Nov-29 10:30N 26°07' W 080°05'0 0.0
2017-Nov-29 10:00N 26°07' W 080°05'0 0.0
2017-Nov-29 09:30N 26°07' W 080°05'0 0.0
2017-Nov-29 09:00N 26°07' W 080°05'0 0.1
2017-Nov-29 08:30N 26°07' W 080°05'0 0.1
2017-Nov-29 08:00N 26°07' W 080°05'0 0.0
2017-Nov-29 07:30N 26°07' W 080°05'0 0.0
2017-Nov-29 06:51N 26°07' W 080°05'0 0.1
2017-Nov-29 06:21N 26°07' W 080°05'0 0.0
2017-Nov-29 05:51N 26°07' W 080°05'0 0.1
2017-Nov-29 05:30N 26°07' W 080°05'0 0.0
2017-Nov-29 04:51N 26°07' W 080°05'0 0.1
2017-Nov-29 04:24N 26°07' W 080°05'0 0.0
2017-Nov-29 03:54N 26°07' W 080°05'0 0.0
2017-Nov-29 03:21N 26°07' W 080°05'0 0.0
2017-Nov-29 02:54N 26°07' W 080°05'0 0.0
2017-Nov-29 02:24N 26°07' W 080°05'0 0.1
2017-Nov-29 01:51N 26°07' W 080°05'0 0.0
2017-Nov-29 01:27N 26°07' W 080°05'0 0.0
2017-Nov-29 00:54N 26°07' W 080°05'0 0.2
2017-Nov-29 00:28N 26°07' W 080°05'3 6.3
2017-Nov-29 00:00N 26°05' W 080°07'0 0.2
2017-Nov-28 23:30N 26°05' W 080°07'0 0.0
2017-Nov-28 22:57N 26°05' W 080°07'0 0.0
2017-Nov-28 22:30N 26°05' W 080°07'0 0.0
2017-Nov-28 21:57N 26°05' W 080°07'0 0.0
2017-Nov-28 21:27N 26°05' W 080°07'0 0.0
2017-Nov-28 21:00N 26°05' W 080°07'0 0.0
2017-Nov-28 20:30N 26°05' W 080°07'0 0.0
2017-Nov-28 20:00N 26°05' W 080°07'0 0.0
2017-Nov-28 19:30N 26°05' W 080°07'0 0.0
2017-Nov-28 19:00N 26°05' W 080°07'0 0.0
2017-Nov-28 18:30N 26°05' W 080°07'0 0.0
2017-Nov-28 18:00N 26°05' W 080°07'0 0.0
2017-Nov-28 17:30N 26°05' W 080°07'0 0.0
2017-Nov-28 16:51N 26°05' W 080°07'0 0.0
2017-Nov-28 16:24N 26°05' W 080°07'0 0.0
2017-Nov-28 15:51N 26°05' W 080°07'0 0.0
2017-Nov-28 14:54N 26°05' W 080°07'0 0.0
2017-Nov-28 14:24N 26°05' W 080°07'0 0.0
2017-Nov-28 13:54N 26°05' W 080°07'0 0.0
2017-Nov-28 13:27N 26°05' W 080°07'0 0.0
2017-Nov-28 12:54N 26°05' W 080°07'0 0.0
2017-Nov-28 12:24N 26°05' W 080°07'0 0.0
2017-Nov-28 11:57N 26°05' W 080°07'0 0.0
2017-Nov-28 11:27N 26°05' W 080°07'0 0.0
2017-Nov-28 10:57N 26°05' W 080°07'0 0.0
2017-Nov-28 10:27N 26°05' W 080°07'0 0.0
2017-Nov-28 09:57N 26°05' W 080°07'  
Track history (hours):
 
Tides and Currents Weather Stations Pressure Air Temp Water Temp Dewpoint Dewpoint Depression Visibility Wind Speed Wind Dir Waves Ship Positions

Vanquish

Last reported at 2017-Dec-08 09:37 UTC. Time now 2017-Dec-14 06:23 UTC.
Position N 25°14' W 080°06'.

Length 100 m; draft 3.7 m.

Type: Cargo ship. MMSI: 244561000.

Date/timePositionNaut miles runAvg speedWind from/ knotsBaromVisibWave heightAir tempDewpointWater temp
2017-Dec-08 09:37N 25°14' W 080°06'311.6
2017-Dec-08 09:22N 25°17' W 080°05'411.4
2017-Dec-08 08:59N 25°21' W 080°03'611.6
2017-Dec-08 08:30N 25°26' W 080°02'612.0
2017-Dec-08 08:00N 25°32' W 080°02'612.8
2017-Dec-08 07:30N 25°39' W 080°02'612.9
2017-Dec-08 07:00N 25°45' W 080°02'713.8
2017-Dec-08 06:31N 25°52' W 080°03'713.9
2017-Dec-08 06:00N 25°59' W 080°04'612.9
2017-Dec-08 05:30N 26°05' W 080°05'2 3.1
2017-Dec-08 04:53N 26°05' W 080°07'0 0.0
2017-Dec-08 04:26N 26°05' W 080°07'0 0.0
2017-Dec-08 03:56N 26°05' W 080°07'0 0.0
2017-Dec-08 03:26N 26°05' W 080°07'0 0.0
2017-Dec-08 02:59N 26°05' W 080°07'0 0.0
2017-Dec-08 02:29N 26°05' W 080°07'0 0.0
2017-Dec-08 01:59N 26°05' W 080°07'0 0.0
2017-Dec-08 01:29N 26°05' W 080°07'0 0.0
2017-Dec-08 00:59N 26°05' W 080°07'0 0.0
2017-Dec-08 00:29N 26°05' W 080°07'0 0.0
2017-Dec-07 23:59N 26°05' W 080°07'0 0.0
2017-Dec-07 23:30N 26°05' W 080°07'2 4.1
2017-Dec-07 23:01N 26°06' W 080°05'2 4.6
2017-Dec-07 22:30N 26°07' W 080°03'0 0.2
2017-Dec-07 22:00N 26°07' W 080°03'611.2
2017-Dec-07 21:30N 26°11' W 079°58'1 2.2
2017-Dec-07 21:00N 26°10' W 079°57'1 2.6
2017-Dec-07 20:30N 26°09' W 079°57'1 2.8
2017-Dec-07 20:00N 26°08' W 079°57'1 2.7
2017-Dec-07 19:30N 26°07' W 079°58'2 3.2
2017-Dec-07 19:00N 26°05' W 079°58'3 5.7
2017-Dec-07 18:30N 26°02' W 079°58'3 5.6
2017-Dec-07 18:00N 25°60' W 079°59'3 5.7
2017-Dec-07 17:30N 25°57' W 079°60'3 6.8
2017-Dec-07 17:00N 25°54' W 080°00'3 7.0
2017-Dec-07 16:30N 25°51' W 080°03'3 6.7
2017-Dec-07 16:00N 25°48' W 080°04'4 7.6
2017-Dec-07 15:30N 25°46' W 080°08'2 4.2
2017-Dec-07 15:00N 25°46' W 080°10'0 0.0
2017-Dec-07 14:30N 25°46' W 080°10'0 0.0
2017-Dec-07 14:00N 25°46' W 080°10'0 0.0
2017-Dec-07 13:30N 25°46' W 080°10'0 0.0
2017-Dec-07 13:00N 25°46' W 080°10'0 0.0
2017-Dec-07 12:30N 25°46' W 080°10'0 0.0
2017-Dec-07 12:00N 25°46' W 080°10'0 0.0
2017-Dec-07 11:30N 25°46' W 080°10'0 0.0
2017-Dec-07 10:54N 25°46' W 080°10'0 0.0
2017-Dec-07 10:30N 25°46' W 080°10'0 0.0
2017-Dec-07 10:00N 25°46' W 080°10'0 0.0
2017-Dec-07 09:30N 25°46' W 080°10'0 0.0
2017-Dec-07 08:57N 25°46' W 080°10'0 0.0
2017-Dec-07 08:30N 25°46' W 080°10'0 0.0
2017-Dec-07 08:00N 25°46' W 080°10'0 0.0
2017-Dec-07 07:30N 25°46' W 080°10'0 0.0
2017-Dec-07 07:00N 25°46' W 080°10'0 0.0
2017-Dec-07 06:30N 25°46' W 080°10'0 0.0
2017-Dec-07 05:57N 25°46' W 080°10'0 0.0
2017-Dec-07 05:30N 25°46' W 080°10'0 0.0
2017-Dec-07 05:00N 25°46' W 080°10'0 0.0
2017-Dec-07 04:30N 25°46' W 080°10'0 0.0
2017-Dec-07 04:00N 25°46' W 080°10'0 0.0
2017-Dec-07 03:30N 25°46' W 080°10'0 0.0
2017-Dec-07 03:00N 25°46' W 080°10'0 0.0
2017-Dec-07 02:30N 25°46' W 080°10'0 0.0
2017-Dec-07 02:00N 25°46' W 080°10'0 0.0
2017-Dec-07 01:30N 25°46' W 080°10'0 0.0
2017-Dec-07 01:00N 25°46' W 080°10'0 0.0
2017-Dec-07 00:30N 25°46' W 080°10'0 0.0
2017-Dec-07 00:00N 25°46' W 080°10'1 2.0
2017-Dec-06 23:30N 25°46' W 080°09'4 8.6
2017-Dec-06 23:00N 25°45' W 080°04'4 8.5
2017-Dec-06 22:30N 25°41' W 080°02'612.0
2017-Dec-06 22:00N 25°35' W 080°02'714.7
2017-Dec-06 21:30N 25°28' W 080°02'  
2017-Dec-01 06:31N 25°16' W 080°06'112.2
2017-Dec-01 06:27N 25°16' W 080°05'512.2
2017-Dec-01 06:00N 25°21' W 080°03'611.9
2017-Dec-01 05:30N 25°27' W 080°03'612.4
2017-Dec-01 05:00N 25°33' W 080°02'612.4
2017-Dec-01 04:30N 25°40' W 080°03'613.0
2017-Dec-01 04:00N 25°46' W 080°03'713.6
2017-Dec-01 03:30N 25°53' W 080°03'713.8
2017-Dec-01 03:00N 25°60' W 080°04'611.7
2017-Dec-01 02:30N 26°05' W 080°05'2 3.7
2017-Dec-01 02:00N 26°05' W 080°07'0 0.0
2017-Dec-01 01:30N 26°05' W 080°07'0 0.0
2017-Dec-01 00:55N 26°05' W 080°07'0 0.0
2017-Dec-01 00:25N 26°05' W 080°07'0 0.0
2017-Nov-30 23:55N 26°05' W 080°07'0 0.0
2017-Nov-30 23:25N 26°05' W 080°07'0 0.0
2017-Nov-30 22:58N 26°05' W 080°07'0 0.0
2017-Nov-30 22:28N 26°05' W 080°07'0 0.0
2017-Nov-30 21:58N 26°05' W 080°07'0 0.0
2017-Nov-30 21:28N 26°05' W 080°07'0 0.0
2017-Nov-30 20:58N 26°05' W 080°07'0 0.0
2017-Nov-30 20:28N 26°05' W 080°07'0 0.0
2017-Nov-30 19:58N 26°05' W 080°07'0 0.0
2017-Nov-30 19:28N 26°05' W 080°07'0 0.0
2017-Nov-30 18:58N 26°05' W 080°07'0 0.0
2017-Nov-30 18:28N 26°05' W 080°07'0 0.0
2017-Nov-30 17:58N 26°05' W 080°07'0 0.0
2017-Nov-30 17:28N 26°05' W 080°07'0 0.0
2017-Nov-30 16:58N 26°05' W 080°07'0 0.0
2017-Nov-30 16:19N 26°05' W 080°07'0 0.0
2017-Nov-30 15:49N 26°05' W 080°07'0 0.0
2017-Nov-30 15:26N 26°05' W 080°07'0 0.0
2017-Nov-30 14:49N 26°05' W 080°07'0 0.0
2017-Nov-30 14:30N 26°05' W 080°07'2 5.0
2017-Nov-30 14:00N 26°06' W 080°04'1 2.5
2017-Nov-30 13:30N 26°07' W 080°05'0 0.2
2017-Nov-30 13:00N 26°07' W 080°05'0 0.0
2017-Nov-30 12:30N 26°07' W 080°05'0 0.0
2017-Nov-30 12:00N 26°07' W 080°05'0 0.0
2017-Nov-30 11:27N 26°07' W 080°05'0 0.0
2017-Nov-30 10:51N 26°07' W 080°05'0 0.0
2017-Nov-30 10:24N 26°07' W 080°05'0 0.0
2017-Nov-30 09:54N 26°07' W 080°05'0 0.0
2017-Nov-30 09:27N 26°07' W 080°05'0 0.0
2017-Nov-30 08:57N 26°07' W 080°05'0 0.0
2017-Nov-30 08:24N 26°07' W 080°05'0 0.0
2017-Nov-30 07:54N 26°07' W 080°05'0 0.0
2017-Nov-30 07:27N 26°07' W 080°05'0 0.0
2017-Nov-30 06:54N 26°07' W 080°05'0 0.0
2017-Nov-30 06:27N 26°07' W 080°05'0 0.0
2017-Nov-30 05:57N 26°07' W 080°05'0 0.0
2017-Nov-30 05:30N 26°07' W 080°05'0 0.0
2017-Nov-30 04:57N 26°07' W 080°05'0 0.0
2017-Nov-30 04:27N 26°07' W 080°05'0 0.0
2017-Nov-30 03:57N 26°07' W 080°05'0 0.0
2017-Nov-30 03:30N 26°07' W 080°05'0 0.0
2017-Nov-30 03:00N 26°07' W 080°05'0 0.0
2017-Nov-30 02:30N 26°07' W 080°05'0 0.1
2017-Nov-30 02:00N 26°07' W 080°05'0 0.0
2017-Nov-30 01:30N 26°07' W 080°05'0 0.0
2017-Nov-30 01:00N 26°07' W 080°05'0 0.0
2017-Nov-30 00:30N 26°07' W 080°05'0 0.0
2017-Nov-30 00:00N 26°07' W 080°05'0 0.0
2017-Nov-29 23:30N 26°07' W 080°05'0 0.0
2017-Nov-29 23:00N 26°07' W 080°05'0 0.0
2017-Nov-29 22:30N 26°07' W 080°05'0 0.0
2017-Nov-29 21:54N 26°07' W 080°05'0 0.0
2017-Nov-29 21:21N 26°07' W 080°05'0 0.0
2017-Nov-29 21:00N 26°07' W 080°05'0 0.0
2017-Nov-29 20:21N 26°07' W 080°05'0 0.0
2017-Nov-29 19:51N 26°07' W 080°05'0 0.0
2017-Nov-29 19:27N 26°07' W 080°05'0 0.0
2017-Nov-29 18:54N 26°07' W 080°05'0 0.0
2017-Nov-29 18:24N 26°07' W 080°05'0 0.0
2017-Nov-29 17:54N 26°07' W 080°05'0 0.0
2017-Nov-29 17:24N 26°07' W 080°05'0 0.0
2017-Nov-29 16:57N 26°07' W 080°05'0 0.0
2017-Nov-29 16:27N 26°07' W 080°05'0 0.0
2017-Nov-29 15:57N 26°07' W 080°05'0 0.1
2017-Nov-29 15:27N 26°07' W 080°05'0 0.0
2017-Nov-29 14:54N 26°07' W 080°05'0 0.0
2017-Nov-29 14:27N 26°07' W 080°05'0 0.0
2017-Nov-29 14:00N 26°07' W 080°05'0 0.0
2017-Nov-29 13:30N 26°07' W 080°05'0 0.0
2017-Nov-29 13:00N 26°07' W 080°05'0 0.0
2017-Nov-29 12:30N 26°07' W 080°05'0 0.0
2017-Nov-29 12:00N 26°07' W 080°05'0 0.1
2017-Nov-29 11:30N 26°07' W 080°05'0 0.1
2017-Nov-29 11:00N 26°07' W 080°05'0 0.1
2017-Nov-29 10:30N 26°07' W 080°05'0 0.0
2017-Nov-29 10:00N 26°07' W 080°05'0 0.0
2017-Nov-29 09:30N 26°07' W 080°05'0 0.0
2017-Nov-29 09:00N 26°07' W 080°05'0 0.1
2017-Nov-29 08:30N 26°07' W 080°05'0 0.1
2017-Nov-29 08:00N 26°07' W 080°05'0 0.0
2017-Nov-29 07:30N 26°07' W 080°05'0 0.0
2017-Nov-29 06:51N 26°07' W 080°05'0 0.1
2017-Nov-29 06:21N 26°07' W 080°05'0 0.0
2017-Nov-29 05:51N 26°07' W 080°05'0 0.1
2017-Nov-29 05:30N 26°07' W 080°05'0 0.0
2017-Nov-29 04:51N 26°07' W 080°05'0 0.1
2017-Nov-29 04:24N 26°07' W 080°05'0 0.0
2017-Nov-29 03:54N 26°07' W 080°05'0 0.0
2017-Nov-29 03:21N 26°07' W 080°05'0 0.0
2017-Nov-29 02:54N 26°07' W 080°05'0 0.0
2017-Nov-29 02:24N 26°07' W 080°05'0 0.1
2017-Nov-29 01:51N 26°07' W 080°05'0 0.0
2017-Nov-29 01:27N 26°07' W 080°05'0 0.0
2017-Nov-29 00:54N 26°07' W 080°05'0 0.2
2017-Nov-29 00:28N 26°07' W 080°05'3 6.3
2017-Nov-29 00:00N 26°05' W 080°07'0 0.2
2017-Nov-28 23:30N 26°05' W 080°07'0 0.0
2017-Nov-28 22:57N 26°05' W 080°07'0 0.0
2017-Nov-28 22:30N 26°05' W 080°07'0 0.0
2017-Nov-28 21:57N 26°05' W 080°07'0 0.0
2017-Nov-28 21:27N 26°05' W 080°07'0 0.0
2017-Nov-28 21:00N 26°05' W 080°07'0 0.0
2017-Nov-28 20:30N 26°05' W 080°07'0 0.0
2017-Nov-28 20:00N 26°05' W 080°07'0 0.0
2017-Nov-28 19:30N 26°05' W 080°07'0 0.0
2017-Nov-28 19:00N 26°05' W 080°07'0 0.0
2017-Nov-28 18:30N 26°05' W 080°07'0 0.0
2017-Nov-28 18:00N 26°05' W 080°07'0 0.0
2017-Nov-28 17:30N 26°05' W 080°07'0 0.0
2017-Nov-28 16:51N 26°05' W 080°07'0 0.0
2017-Nov-28 16:24N 26°05' W 080°07'0 0.0
2017-Nov-28 15:51N 26°05' W 080°07'0 0.0
2017-Nov-28 14:54N 26°05' W 080°07'0 0.0
2017-Nov-28 14:24N 26°05' W 080°07'0 0.0
2017-Nov-28 13:54N 26°05' W 080°07'0 0.0
2017-Nov-28 13:27N 26°05' W 080°07'0 0.0
2017-Nov-28 12:54N 26°05' W 080°07'0 0.0
2017-Nov-28 12:24N 26°05' W 080°07'0 0.0
2017-Nov-28 11:57N 26°05' W 080°07'0 0.0
2017-Nov-28 11:27N 26°05' W 080°07'0 0.0
2017-Nov-28 10:57N 26°05' W 080°07'0 0.0
2017-Nov-28 10:27N 26°05' W 080°07'0 0.0
2017-Nov-28 09:57N 26°05' W 080°07'  

Dump ship's entire track history